sensor_id;sensor_type;location;lat;lon;timestamp;pressure;altitude;pressure_sealevel;temperature;humidity
64610;BME280;51019;46.090;6.350;2022-12-11T00:01:45;95624.47;;;-1.80;100.00
64610;BME280;51019;46.090;6.350;2022-12-11T00:04:12;95767.09;;;-1.00;100.00
64610;BME280;51019;46.090;6.350;2022-12-11T00:06:42;95758.13;;;-0.93;100.00
64610;BME280;51019;46.090;6.350;2022-12-11T00:09:09;95750.41;;;-0.93;100.00
64610;BME280;51019;46.090;6.350;2022-12-11T00:11:38;95735.69;;;-1.05;100.00
64610;BME280;51019;46.090;6.350;2022-12-11T00:14:05;95723.66;;;-1.05;100.00
64610;BME280;51019;46.090;6.350;2022-12-11T00:16:32;95758.38;;;-0.98;100.00
64610;BME280;51019;46.090;6.350;2022-12-11T00:19:00;95758.56;;;-1.01;100.00
64610;BME280;51019;46.090;6.350;2022-12-11T00:21:27;95765.56;;;-1.03;100.00
64610;BME280;51019;46.090;6.350;2022-12-11T00:23:56;95761.88;;;-0.85;100.00
64610;BME280;51019;46.090;6.350;2022-12-11T00:26:24;95643.94;;;-1.62;100.00
64610;BME280;51019;46.090;6.350;2022-12-11T00:28:53;95728.25;;;-1.10;100.00
64610;BME280;51019;46.090;6.350;2022-12-11T00:31:23;95731.75;;;-0.83;100.00
64610;BME280;51019;46.090;6.350;2022-12-11T00:33:50;95747.19;;;-0.68;100.00
64610;BME280;51019;46.090;6.350;2022-12-11T00:36:19;95744.50;;;-0.81;100.00
64610;BME280;51019;46.090;6.350;2022-12-11T00:38:48;95735.06;;;-0.81;100.00
64610;BME280;51019;46.090;6.350;2022-12-11T00:41:17;95747.19;;;-0.83;100.00
64610;BME280;51019;46.090;6.350;2022-12-11T00:43:45;95715.69;;;-1.15;100.00
64610;BME280;51019;46.090;6.350;2022-12-11T00:46:13;95760.41;;;-0.75;100.00
64610;BME280;51019;46.090;6.350;2022-12-11T00:48:40;95764.19;;;-0.80;100.00
64610;BME280;51019;46.090;6.350;2022-12-11T00:51:08;95762.44;;;-0.80;100.00
64610;BME280;51019;46.090;6.350;2022-12-11T00:53:36;95737.44;;;-0.92;100.00
64610;BME280;51019;46.090;6.350;2022-12-11T00:56:09;95784.13;;;-0.69;100.00
64610;BME280;51019;46.090;6.350;2022-12-11T00:58:39;95797.00;;;-0.69;100.00
64610;BME280;51019;46.090;6.350;2022-12-11T01:01:08;95803.88;;;-0.70;100.00
64610;BME280;51019;46.090;6.350;2022-12-11T01:03:36;95793.38;;;-0.53;100.00
64610;BME280;51019;46.090;6.350;2022-12-11T01:06:04;95783.16;;;-0.54;100.00
64610;BME280;51019;46.090;6.350;2022-12-11T01:08:32;95772.44;;;-0.75;100.00
64610;BME280;51019;46.090;6.350;2022-12-11T01:11:02;95776.94;;;-0.79;100.00
64610;BME280;51019;46.090;6.350;2022-12-11T01:13:28;95764.72;;;-0.75;100.00
64610;BME280;51019;46.090;6.350;2022-12-11T01:15:58;95770.50;;;-0.71;100.00
64610;BME280;51019;46.090;6.350;2022-12-11T01:18:26;95740.72;;;-0.90;100.00
64610;BME280;51019;46.090;6.350;2022-12-11T01:20:53;95703.34;;;-1.10;100.00
64610;BME280;51019;46.090;6.350;2022-12-11T01:23:20;95723.84;;;-0.94;100.00
64610;BME280;51019;46.090;6.350;2022-12-11T01:25:48;95767.00;;;-0.56;100.00
64610;BME280;51019;46.090;6.350;2022-12-11T01:28:15;95754.22;;;-1.00;100.00
64610;BME280;51019;46.090;6.350;2022-12-11T01:30:43;95654.56;;;-1.82;100.00
64610;BME280;51019;46.090;6.350;2022-12-11T01:33:12;95693.31;;;-1.57;100.00
64610;BME280;51019;46.090;6.350;2022-12-11T01:35:40;95734.53;;;-1.44;100.00
64610;BME280;51019;46.090;6.350;2022-12-11T01:38:07;95776.09;;;-1.07;100.00
64610;BME280;51019;46.090;6.350;2022-12-11T01:40:35;95785.75;;;-0.97;100.00
64610;BME280;51019;46.090;6.350;2022-12-11T01:43:03;95708.44;;;-1.66;100.00
64610;BME280;51019;46.090;6.350;2022-12-11T01:45:33;95799.97;;;-1.20;100.00
64610;BME280;51019;46.090;6.350;2022-12-11T01:48:06;95786.81;;;-1.29;100.00
64610;BME280;51019;46.090;6.350;2022-12-11T01:50:40;95803.44;;;-1.21;100.00
64610;BME280;51019;46.090;6.350;2022-12-11T01:53:12;95786.81;;;-1.29;100.00
64610;BME280;51019;46.090;6.350;2022-12-11T01:55:41;95808.50;;;-1.19;100.00
64610;BME280;51019;46.090;6.350;2022-12-11T01:58:10;95733.38;;;-1.68;100.00
64610;BME280;51019;46.090;6.350;2022-12-11T02:00:38;95802.97;;;-1.27;100.00
64610;BME280;51019;46.090;6.350;2022-12-11T02:03:06;95801.16;;;-1.25;100.00
64610;BME280;51019;46.090;6.350;2022-12-11T02:05:36;95788.09;;;-1.36;100.00
64610;BME280;51019;46.090;6.350;2022-12-11T02:08:05;95788.66;;;-1.31;100.00
64610;BME280;51019;46.090;6.350;2022-12-11T02:10:45;95671.38;;;-2.06;100.00
64610;BME280;51019;46.090;6.350;2022-12-11T02:13:18;95790.31;;;-1.30;100.00
64610;BME280;51019;46.090;6.350;2022-12-11T02:15:50;95728.66;;;-1.60;100.00
64610;BME280;51019;46.090;6.350;2022-12-11T02:18:28;95778.78;;;-1.53;100.00
64610;BME280;51019;46.090;6.350;2022-12-11T02:21:02;95789.94;;;-1.38;100.00
64610;BME280;51019;46.090;6.350;2022-12-11T02:23:52;95803.09;;;-1.44;100.00
64610;BME280;51019;46.090;6.350;2022-12-11T02:26:41;95792.44;;;-1.53;100.00
64610;BME280;51019;46.090;6.350;2022-12-11T02:29:19;95756.28;;;-1.79;100.00
64610;BME280;51019;46.090;6.350;2022-12-11T02:31:51;95807.94;;;-1.54;100.00
64610;BME280;51019;46.090;6.350;2022-12-11T02:34:23;95807.28;;;-1.58;100.00
64610;BME280;51019;46.090;6.350;2022-12-11T02:36:58;95795.28;;;-1.57;100.00
64610;BME280;51019;46.090;6.350;2022-12-11T02:39:27;95797.19;;;-1.61;100.00
64610;BME280;51019;46.090;6.350;2022-12-11T02:41:55;95800.16;;;-1.53;100.00
64610;BME280;51019;46.090;6.350;2022-12-11T02:44:28;95804.00;;;-1.60;100.00
64610;BME280;51019;46.090;6.350;2022-12-11T02:46:56;95815.28;;;-1.62;100.00
64610;BME280;51019;46.090;6.350;2022-12-11T02:49:25;95817.84;;;-1.62;100.00
64610;BME280;51019;46.090;6.350;2022-12-11T02:51:55;95818.00;;;-1.65;100.00
64610;BME280;51019;46.090;6.350;2022-12-11T02:54:25;95823.16;;;-1.65;100.00
64610;BME280;51019;46.090;6.350;2022-12-11T02:56:59;95833.78;;;-1.71;100.00
64610;BME280;51019;46.090;6.350;2022-12-11T02:59:33;95834.59;;;-1.71;100.00
64610;BME280;51019;46.090;6.350;2022-12-11T03:02:02;95826.91;;;-1.71;100.00
64610;BME280;51019;46.090;6.350;2022-12-11T03:04:31;95824.34;;;-1.71;100.00
64610;BME280;51019;46.090;6.350;2022-12-11T03:07:03;95814.88;;;-1.70;100.00
64610;BME280;51019;46.090;6.350;2022-12-11T03:09:37;95716.84;;;-2.08;100.00
64610;BME280;51019;46.090;6.350;2022-12-11T03:12:05;95731.91;;;-2.02;100.00
64610;BME280;51019;46.090;6.350;2022-12-11T03:14:38;95799.63;;;-1.73;100.00
64610;BME280;51019;46.090;6.350;2022-12-11T03:17:11;95770.31;;;-1.85;100.00
64610;BME280;51019;46.090;6.350;2022-12-11T03:19:46;95803.34;;;-1.79;100.00
64610;BME280;51019;46.090;6.350;2022-12-11T03:22:20;95697.03;;;-2.68;100.00
64610;BME280;51019;46.090;6.350;2022-12-11T03:24:50;95803.81;;;-2.02;100.00
64610;BME280;51019;46.090;6.350;2022-12-11T03:27:26;95801.00;;;-2.13;100.00
64610;BME280;51019;46.090;6.350;2022-12-11T03:29:57;95805.38;;;-2.00;100.00
64610;BME280;51019;46.090;6.350;2022-12-11T03:32:29;95803.41;;;-2.10;100.00
64610;BME280;51019;46.090;6.350;2022-12-11T03:35:02;95690.84;;;-2.95;100.00
64610;BME280;51019;46.090;6.350;2022-12-11T03:37:34;95806.38;;;-2.34;100.00
64610;BME280;51019;46.090;6.350;2022-12-11T03:40:06;95807.63;;;-2.41;100.00
64610;BME280;51019;46.090;6.350;2022-12-11T03:42:37;95813.44;;;-2.37;100.00
64610;BME280;51019;46.090;6.350;2022-12-11T03:45:09;95795.88;;;-2.45;100.00
64610;BME280;51019;46.090;6.350;2022-12-11T03:47:38;95809.63;;;-2.30;100.00
64610;BME280;51019;46.090;6.350;2022-12-11T03:50:09;95711.13;;;-2.75;100.00
64610;BME280;51019;46.090;6.350;2022-12-11T03:52:39;95800.50;;;-2.04;100.00
64610;BME280;51019;46.090;6.350;2022-12-11T03:55:08;95803.47;;;-1.96;100.00
64610;BME280;51019;46.090;6.350;2022-12-11T03:57:38;95806.88;;;-1.96;100.00
64610;BME280;51019;46.090;6.350;2022-12-11T04:00:10;95806.63;;;-2.07;100.00
64610;BME280;51019;46.090;6.350;2022-12-11T04:02:38;95774.75;;;-2.18;100.00
64610;BME280;51019;46.090;6.350;2022-12-11T04:05:07;95811.50;;;-2.02;100.00
64610;BME280;51019;46.090;6.350;2022-12-11T04:07:34;95741.88;;;-2.59;100.00
64610;BME280;51019;46.090;6.350;2022-12-11T04:10:02;95780.47;;;-2.45;100.00
64610;BME280;51019;46.090;6.350;2022-12-11T04:12:30;95816.06;;;-2.23;100.00
64610;BME280;51019;46.090;6.350;2022-12-11T04:14:57;95807.13;;;-2.32;100.00
64610;BME280;51019;46.090;6.350;2022-12-11T04:17:28;95773.03;;;-2.49;100.00
64610;BME280;51019;46.090;6.350;2022-12-11T04:20:13;95783.78;;;-2.43;100.00
64610;BME280;51019;46.090;6.350;2022-12-11T04:22:57;95753.50;;;-2.52;100.00
64610;BME280;51019;46.090;6.350;2022-12-11T04:25:42;95789.25;;;-2.33;100.00
64610;BME280;51019;46.090;6.350;2022-12-11T04:28:09;95731.72;;;-2.76;100.00
64610;BME280;51019;46.090;6.350;2022-12-11T04:30:37;95801.91;;;-2.46;100.00
64610;BME280;51019;46.090;6.350;2022-12-11T04:33:06;95805.06;;;-2.41;100.00
64610;BME280;51019;46.090;6.350;2022-12-11T04:35:33;95793.31;;;-2.29;100.00
64610;BME280;51019;46.090;6.350;2022-12-11T04:38:00;95790.31;;;-2.22;100.00
64610;BME280;51019;46.090;6.350;2022-12-11T04:40:27;95799.44;;;-2.32;100.00
64610;BME280;51019;46.090;6.350;2022-12-11T04:42:55;95802.81;;;-2.31;100.00
64610;BME280;51019;46.090;6.350;2022-12-11T04:45:23;95770.38;;;-2.64;100.00
64610;BME280;51019;46.090;6.350;2022-12-11T04:47:51;95689.41;;;-3.16;100.00
64610;BME280;51019;46.090;6.350;2022-12-11T04:50:20;95796.50;;;-2.57;100.00
64610;BME280;51019;46.090;6.350;2022-12-11T04:52:47;95693.72;;;-3.01;100.00
64610;BME280;51019;46.090;6.350;2022-12-11T04:55:15;95705.13;;;-3.07;100.00
64610;BME280;51019;46.090;6.350;2022-12-11T04:57:42;95801.97;;;-2.47;100.00
64610;BME280;51019;46.090;6.350;2022-12-11T05:00:11;95789.56;;;-2.55;100.00
64610;BME280;51019;46.090;6.350;2022-12-11T05:02:39;95722.25;;;-2.92;100.00
64610;BME280;51019;46.090;6.350;2022-12-11T05:05:09;95792.72;;;-2.50;100.00
64610;BME280;51019;46.090;6.350;2022-12-11T05:07:38;95763.25;;;-2.59;100.00
64610;BME280;51019;46.090;6.350;2022-12-11T05:10:06;95760.59;;;-2.57;100.00
64610;BME280;51019;46.090;6.350;2022-12-11T05:12:34;95738.25;;;-2.86;100.00
64610;BME280;51019;46.090;6.350;2022-12-11T05:15:02;95707.09;;;-3.12;100.00
64610;BME280;51019;46.090;6.350;2022-12-11T05:17:29;95784.13;;;-2.82;100.00
64610;BME280;51019;46.090;6.350;2022-12-11T05:19:57;95776.94;;;-2.91;100.00
64610;BME280;51019;46.090;6.350;2022-12-11T05:22:25;95782.47;;;-2.99;100.00
64610;BME280;51019;46.090;6.350;2022-12-11T05:24:54;95686.13;;;-3.69;100.00
64610;BME280;51019;46.090;6.350;2022-12-11T05:27:21;95774.78;;;-3.16;100.00
64610;BME280;51019;46.090;6.350;2022-12-11T05:29:49;95772.22;;;-3.16;100.00
64610;BME280;51019;46.090;6.350;2022-12-11T05:32:16;95663.63;;;-3.79;100.00
64610;BME280;51019;46.090;6.350;2022-12-11T05:34:43;95759.53;;;-3.35;100.00
64610;BME280;51019;46.090;6.350;2022-12-11T05:37:11;95762.72;;;-3.47;100.00
64610;BME280;51019;46.090;6.350;2022-12-11T05:39:38;95766.25;;;-3.32;100.00
64610;BME280;51019;46.090;6.350;2022-12-11T05:42:08;95726.94;;;-3.66;100.00
64610;BME280;51019;46.090;6.350;2022-12-11T05:44:35;95768.25;;;-3.21;100.00
64610;BME280;51019;46.090;6.350;2022-12-11T05:47:03;95778.03;;;-3.62;100.00
64610;BME280;51019;46.090;6.350;2022-12-11T05:49:30;95639.31;;;-4.57;100.00
64610;BME280;51019;46.090;6.350;2022-12-11T05:51:57;95771.09;;;-3.78;100.00
64610;BME280;51019;46.090;6.350;2022-12-11T05:54:25;95729.66;;;-4.03;100.00
64610;BME280;51019;46.090;6.350;2022-12-11T05:56:52;95782.22;;;-3.79;100.00
64610;BME280;51019;46.090;6.350;2022-12-11T05:59:21;95744.34;;;-4.07;100.00
64610;BME280;51019;46.090;6.350;2022-12-11T06:01:49;95778.97;;;-3.99;100.00
64610;BME280;51019;46.090;6.350;2022-12-11T06:04:16;95794.84;;;-4.10;100.00
64610;BME280;51019;46.090;6.350;2022-12-11T06:06:43;95789.34;;;-4.03;100.00
64610;BME280;51019;46.090;6.350;2022-12-11T06:09:12;95786.09;;;-4.06;100.00
64610;BME280;51019;46.090;6.350;2022-12-11T06:11:40;95790.25;;;-4.04;100.00
64610;BME280;51019;46.090;6.350;2022-12-11T06:14:08;95787.56;;;-4.00;100.00
64610;BME280;51019;46.090;6.350;2022-12-11T06:16:38;95796.00;;;-3.98;100.00
64610;BME280;51019;46.090;6.350;2022-12-11T06:19:05;95690.97;;;-4.67;100.00
64610;BME280;51019;46.090;6.350;2022-12-11T06:21:33;95800.97;;;-3.95;100.00
64610;BME280;51019;46.090;6.350;2022-12-11T06:24:04;95793.88;;;-3.90;100.00
64610;BME280;51019;46.090;6.350;2022-12-11T06:26:32;95783.97;;;-3.96;100.00
64610;BME280;51019;46.090;6.350;2022-12-11T06:28:59;95790.31;;;-4.05;100.00
64610;BME280;51019;46.090;6.350;2022-12-11T06:31:26;95784.97;;;-4.18;100.00
64610;BME280;51019;46.090;6.350;2022-12-11T06:33:56;95694.34;;;-4.67;100.00
64610;BME280;51019;46.090;6.350;2022-12-11T06:36:23;95759.13;;;-4.30;100.00
64610;BME280;51019;46.090;6.350;2022-12-11T06:38:51;95794.59;;;-4.06;100.00
64610;BME280;51019;46.090;6.350;2022-12-11T06:41:18;95736.94;;;-4.49;100.00
64610;BME280;51019;46.090;6.350;2022-12-11T06:43:46;95775.78;;;-4.22;100.00
64610;BME280;51019;46.090;6.350;2022-12-11T06:46:14;95790.72;;;-4.31;100.00
64610;BME280;51019;46.090;6.350;2022-12-11T06:48:42;95791.97;;;-4.21;100.00
64610;BME280;51019;46.090;6.350;2022-12-11T06:51:13;95789.78;;;-4.12;100.00
64610;BME280;51019;46.090;6.350;2022-12-11T06:53:41;95763.41;;;-4.50;100.00
64610;BME280;51019;46.090;6.350;2022-12-11T06:56:11;95799.91;;;-4.27;100.00
64610;BME280;51019;46.090;6.350;2022-12-11T06:58:39;95793.25;;;-4.13;100.00
64610;BME280;51019;46.090;6.350;2022-12-11T07:01:14;95796.06;;;-4.55;100.00
64610;BME280;51019;46.090;6.350;2022-12-11T07:03:42;95780.31;;;-4.64;100.00
64610;BME280;51019;46.090;6.350;2022-12-11T07:06:11;95679.50;;;-5.34;100.00
64610;BME280;51019;46.090;6.350;2022-12-11T07:08:39;95781.75;;;-4.59;100.00
64610;BME280;51019;46.090;6.350;2022-12-11T07:11:08;95797.16;;;-4.60;100.00
64610;BME280;51019;46.090;6.350;2022-12-11T07:13:37;95719.28;;;-5.28;100.00
64610;BME280;51019;46.090;6.350;2022-12-11T07:16:07;95699.19;;;-5.36;100.00
64610;BME280;51019;46.090;6.350;2022-12-11T07:18:35;95801.78;;;-4.68;100.00
64610;BME280;51019;46.090;6.350;2022-12-11T07:21:03;95703.88;;;-5.27;100.00
64610;BME280;51019;46.090;6.350;2022-12-11T07:23:33;95800.78;;;-4.64;100.00
64610;BME280;51019;46.090;6.350;2022-12-11T07:26:03;95802.78;;;-4.52;100.00
64610;BME280;51019;46.090;6.350;2022-12-11T07:28:31;95804.06;;;-4.62;100.00
64610;BME280;51019;46.090;6.350;2022-12-11T07:31:03;95810.00;;;-4.62;100.00
64610;BME280;51019;46.090;6.350;2022-12-11T07:33:31;95787.63;;;-4.57;100.00
64610;BME280;51019;46.090;6.350;2022-12-11T07:36:00;95791.75;;;-4.73;100.00
64610;BME280;51019;46.090;6.350;2022-12-11T07:38:28;95633.84;;;-5.60;100.00
64610;BME280;51019;46.090;6.350;2022-12-11T07:40:59;95804.91;;;-4.62;100.00
64610;BME280;51019;46.090;6.350;2022-12-11T07:43:27;95800.78;;;-4.64;100.00
64610;BME280;51019;46.090;6.350;2022-12-11T07:45:58;95747.13;;;-5.03;100.00
64610;BME280;51019;46.090;6.350;2022-12-11T07:48:26;95798.81;;;-4.59;100.00
64610;BME280;51019;46.090;6.350;2022-12-11T07:50:53;95801.06;;;-4.52;100.00
64610;BME280;51019;46.090;6.350;2022-12-11T07:53:20;95723.72;;;-4.94;100.00
64610;BME280;51019;46.090;6.350;2022-12-11T07:55:48;95783.06;;;-4.50;100.00
64610;BME280;51019;46.090;6.350;2022-12-11T07:58:17;95814.03;;;-4.38;100.00
64610;BME280;51019;46.090;6.350;2022-12-11T08:00:45;95797.16;;;-4.42;100.00
64610;BME280;51019;46.090;6.350;2022-12-11T08:03:13;95794.44;;;-4.39;100.00
64610;BME280;51019;46.090;6.350;2022-12-11T08:05:46;95796.19;;;-4.39;100.00
64610;BME280;51019;46.090;6.350;2022-12-11T08:08:14;95788.47;;;-4.56;100.00
64610;BME280;51019;46.090;6.350;2022-12-11T08:10:41;95794.13;;;-4.50;100.00
64610;BME280;51019;46.090;6.350;2022-12-11T08:13:08;95796.28;;;-4.41;100.00
64610;BME280;51019;46.090;6.350;2022-12-11T08:15:37;95711.63;;;-4.91;100.00
64610;BME280;51019;46.090;6.350;2022-12-11T08:18:04;95791.06;;;-4.20;100.00
64610;BME280;51019;46.090;6.350;2022-12-11T08:20:32;95800.06;;;-4.30;100.00
64610;BME280;51019;46.090;6.350;2022-12-11T08:22:59;95794.44;;;-4.39;100.00
64610;BME280;51019;46.090;6.350;2022-12-11T08:25:28;95764.41;;;-4.71;100.00
64610;BME280;51019;46.090;6.350;2022-12-11T08:27:55;95785.38;;;-4.63;100.00
64610;BME280;51019;46.090;6.350;2022-12-11T08:30:22;95785.84;;;-4.55;100.00
64610;BME280;51019;46.090;6.350;2022-12-11T08:32:51;95793.97;;;-4.47;100.00
64610;BME280;51019;46.090;6.350;2022-12-11T08:35:18;95750.97;;;-4.39;100.00
64610;BME280;51019;46.090;6.350;2022-12-11T08:37:45;95791.97;;;-4.04;100.00
64610;BME280;51019;46.090;6.350;2022-12-11T08:40:13;95722.13;;;-4.06;100.00
64610;BME280;51019;46.090;6.350;2022-12-11T08:42:40;95759.31;;;-3.82;100.00
64610;BME280;51019;46.090;6.350;2022-12-11T08:45:09;95788.41;;;-3.48;100.00
64610;BME280;51019;46.090;6.350;2022-12-11T08:47:37;95782.19;;;-3.27;100.00
64610;BME280;51019;46.090;6.350;2022-12-11T08:50:07;95771.31;;;-2.98;100.00
64610;BME280;51019;46.090;6.350;2022-12-11T08:52:35;95749.78;;;-2.62;100.00
64610;BME280;51019;46.090;6.350;2022-12-11T08:55:03;95790.63;;;-1.51;100.00
64610;BME280;51019;46.090;6.350;2022-12-11T08:57:30;95717.13;;;-1.39;100.00
64610;BME280;51019;46.090;6.350;2022-12-11T08:59:58;95776.47;;;-0.71;100.00
64610;BME280;51019;46.090;6.350;2022-12-11T09:02:25;95777.84;;;-0.51;100.00
64610;BME280;51019;46.090;6.350;2022-12-11T09:04:52;95777.13;;;0.15;100.00
64610;BME280;51019;46.090;6.350;2022-12-11T09:07:22;95774.22;;;0.46;100.00
64610;BME280;51019;46.090;6.350;2022-12-11T09:09:49;95778.75;;;0.95;100.00
64610;BME280;51019;46.090;6.350;2022-12-11T09:12:17;95762.44;;;1.07;100.00
64610;BME280;51019;46.090;6.350;2022-12-11T09:14:44;95789.81;;;1.22;100.00
64610;BME280;51019;46.090;6.350;2022-12-11T09:17:12;95778.75;;;1.20;100.00
64610;BME280;51019;46.090;6.350;2022-12-11T09:19:40;95796.09;;;1.05;100.00
64610;BME280;51019;46.090;6.350;2022-12-11T09:22:07;95702.63;;;1.26;98.89
64610;BME280;51019;46.090;6.350;2022-12-11T09:24:37;95798.06;;;1.89;98.74
64610;BME280;51019;46.090;6.350;2022-12-11T09:27:05;95796.72;;;2.44;95.65
64610;BME280;51019;46.090;6.350;2022-12-11T09:29:33;95796.44;;;2.12;94.51
64610;BME280;51019;46.090;6.350;2022-12-11T09:32:00;95802.31;;;1.90;94.63
64610;BME280;51019;46.090;6.350;2022-12-11T09:34:28;95765.84;;;1.07;98.33
64610;BME280;51019;46.090;6.350;2022-12-11T09:36:56;95801.50;;;0.63;100.00
64610;BME280;51019;46.090;6.350;2022-12-11T09:39:24;95794.25;;;0.43;100.00
64610;BME280;51019;46.090;6.350;2022-12-11T09:41:58;95736.94;;;-0.15;100.00
64610;BME280;51019;46.090;6.350;2022-12-11T09:44:48;95793.31;;;1.47;100.00
64610;BME280;51019;46.090;6.350;2022-12-11T09:47:23;95762.84;;;2.12;96.71
64610;BME280;51019;46.090;6.350;2022-12-11T09:49:56;95778.00;;;2.75;92.14
64610;BME280;51019;46.090;6.350;2022-12-11T09:52:31;95722.81;;;2.64;89.93
64610;BME280;51019;46.090;6.350;2022-12-11T09:55:03;95783.94;;;2.88;90.39
64610;BME280;51019;46.090;6.350;2022-12-11T09:57:45;95778.28;;;2.95;86.80
64610;BME280;51019;46.090;6.350;2022-12-11T10:00:20;95741.91;;;2.39;88.34
64610;BME280;51019;46.090;6.350;2022-12-11T10:05:46;95781.69;;;1.65;93.43
64610;BME280;51019;46.090;6.350;2022-12-11T10:08:26;95679.88;;;0.44;96.99
64610;BME280;51019;46.090;6.350;2022-12-11T10:11:07;95719.03;;;0.36;98.14
64610;BME280;51019;46.090;6.350;2022-12-11T10:13:49;95750.16;;;0.20;100.00
64610;BME280;51019;46.090;6.350;2022-12-11T10:16:31;95776.16;;;0.30;100.00
64610;BME280;51019;46.090;6.350;2022-12-11T10:19:00;95775.00;;;0.21;100.00
64610;BME280;51019;46.090;6.350;2022-12-11T10:21:37;95777.59;;;0.34;100.00
64610;BME280;51019;46.090;6.350;2022-12-11T10:24:11;95754.31;;;0.35;100.00
64610;BME280;51019;46.090;6.350;2022-12-11T10:26:42;95688.75;;;-0.13;100.00
64610;BME280;51019;46.090;6.350;2022-12-11T10:29:13;95714.13;;;0.06;100.00
64610;BME280;51019;46.090;6.350;2022-12-11T10:31:47;95775.75;;;0.36;100.00
64610;BME280;51019;46.090;6.350;2022-12-11T10:34:24;95759.94;;;0.93;100.00
64610;BME280;51019;46.090;6.350;2022-12-11T10:36:56;95630.44;;;-0.41;100.00
64610;BME280;51019;46.090;6.350;2022-12-11T10:39:23;95748.25;;;0.49;100.00
64610;BME280;51019;46.090;6.350;2022-12-11T10:41:51;95761.81;;;0.65;100.00
64610;BME280;51019;46.090;6.350;2022-12-11T10:44:22;95711.88;;;0.54;100.00
64610;BME280;51019;46.090;6.350;2022-12-11T10:47:01;95765.34;;;0.90;100.00
64610;BME280;51019;46.090;6.350;2022-12-11T10:49:30;95760.22;;;1.52;97.29
64610;BME280;51019;46.090;6.350;2022-12-11T10:51:58;95753.00;;;2.52;88.98
64610;BME280;51019;46.090;6.350;2022-12-11T10:54:30;95748.22;;;3.05;83.93
64610;BME280;51019;46.090;6.350;2022-12-11T10:56:59;95753.94;;;2.86;84.86
64610;BME280;51019;46.090;6.350;2022-12-11T10:59:35;95762.53;;;2.28;88.44
64610;BME280;51019;46.090;6.350;2022-12-11T11:02:05;95664.50;;;1.42;88.77
64610;BME280;51019;46.090;6.350;2022-12-11T11:04:36;95724.81;;;1.77;89.55
64610;BME280;51019;46.090;6.350;2022-12-11T11:07:11;95683.75;;;1.25;90.24
64610;BME280;51019;46.090;6.350;2022-12-11T11:09:39;95749.25;;;1.97;91.53
64610;BME280;51019;46.090;6.350;2022-12-11T11:12:20;95678.47;;;3.69;80.54
64610;BME280;51019;46.090;6.350;2022-12-11T11:15:00;95737.03;;;5.08;73.75
64610;BME280;51019;46.090;6.350;2022-12-11T11:17:29;95737.50;;;6.43;66.13
64610;BME280;51019;46.090;6.350;2022-12-11T11:20:00;95692.22;;;7.02;64.13
64610;BME280;51019;46.090;6.350;2022-12-11T11:22:31;95678.81;;;6.97;62.23
64610;BME280;51019;46.090;6.350;2022-12-11T11:24:58;95637.63;;;6.54;60.80
64610;BME280;51019;46.090;6.350;2022-12-11T11:27:28;95719.69;;;6.87;61.71
64610;BME280;51019;46.090;6.350;2022-12-11T11:30:02;95720.94;;;6.54;62.05
64610;BME280;51019;46.090;6.350;2022-12-11T11:32:32;95667.34;;;6.32;62.12
64610;BME280;51019;46.090;6.350;2022-12-11T11:35:19;95714.47;;;6.68;62.23
64610;BME280;51019;46.090;6.350;2022-12-11T11:37:54;95713.06;;;6.92;61.67
64610;BME280;51019;46.090;6.350;2022-12-11T11:40:27;95696.56;;;7.11;60.42
64610;BME280;51019;46.090;6.350;2022-12-11T11:43:02;95707.59;;;7.70;58.06
64610;BME280;51019;46.090;6.350;2022-12-11T11:45:36;95682.78;;;7.38;58.38
64610;BME280;51019;46.090;6.350;2022-12-11T11:48:14;95705.13;;;7.68;58.54
64610;BME280;51019;46.090;6.350;2022-12-11T11:50:48;95708.34;;;7.62;58.65
64610;BME280;51019;46.090;6.350;2022-12-11T11:53:21;95685.97;;;7.59;57.54
64610;BME280;51019;46.090;6.350;2022-12-11T11:56:00;95714.63;;;8.42;57.06
64610;BME280;51019;46.090;6.350;2022-12-11T11:58:36;95702.25;;;8.44;55.67
64610;BME280;51019;46.090;6.350;2022-12-11T12:01:12;95695.44;;;8.33;56.20
64610;BME280;51019;46.090;6.350;2022-12-11T12:03:41;95694.28;;;7.73;57.17
64610;BME280;51019;46.090;6.350;2022-12-11T12:06:14;95693.81;;;8.05;57.33
64610;BME280;51019;46.090;6.350;2022-12-11T12:08:47;95688.97;;;7.64;57.12
64610;BME280;51019;46.090;6.350;2022-12-11T12:11:18;95686.44;;;7.45;58.61
64610;BME280;51019;46.090;6.350;2022-12-11T12:14:02;95668.38;;;7.89;56.09
64610;BME280;51019;46.090;6.350;2022-12-11T12:16:36;95683.41;;;7.77;55.78
64610;BME280;51019;46.090;6.350;2022-12-11T12:19:15;95682.69;;;8.02;54.67
64610;BME280;51019;46.090;6.350;2022-12-11T12:21:50;95669.22;;;8.07;56.06
64610;BME280;51019;46.090;6.350;2022-12-11T12:24:26;95668.56;;;8.23;53.90
64610;BME280;51019;46.090;6.350;2022-12-11T12:27:27;95669.97;;;7.72;56.08
64610;BME280;51019;46.090;6.350;2022-12-11T12:30:03;95641.56;;;7.96;54.32
64610;BME280;51019;46.090;6.350;2022-12-11T12:32:40;95668.38;;;6.97;54.98
64610;BME280;51019;46.090;6.350;2022-12-11T12:35:26;95654.75;;;8.13;54.56
64610;BME280;51019;46.090;6.350;2022-12-11T12:38:05;95585.25;;;7.76;53.68
64610;BME280;51019;46.090;6.350;2022-12-11T12:40:40;95653.13;;;8.47;52.82
64610;BME280;51019;46.090;6.350;2022-12-11T12:46:06;95647.91;;;8.65;51.55
64610;BME280;51019;46.090;6.350;2022-12-11T12:48:37;95542.91;;;7.82;52.72
64610;BME280;51019;46.090;6.350;2022-12-11T12:51:05;95647.38;;;8.08;51.96
64610;BME280;51019;46.090;6.350;2022-12-11T12:53:34;95541.44;;;7.80;51.50
64610;BME280;51019;46.090;6.350;2022-12-11T12:56:04;95653.22;;;8.81;51.36
64610;BME280;51019;46.090;6.350;2022-12-11T12:58:40;95643.44;;;8.40;51.84
64610;BME280;51019;46.090;6.350;2022-12-11T13:01:13;95632.53;;;9.14;50.08
64610;BME280;51019;46.090;6.350;2022-12-11T13:03:53;95597.06;;;8.59;50.62
64610;BME280;51019;46.090;6.350;2022-12-11T13:06:30;95581.03;;;8.11;52.45
64610;BME280;51019;46.090;6.350;2022-12-11T13:09:10;95632.97;;;8.04;51.93
64610;BME280;51019;46.090;6.350;2022-12-11T13:11:38;95631.34;;;6.28;56.71
64610;BME280;51019;46.090;6.350;2022-12-11T13:14:20;95627.38;;;5.95;60.32
64610;BME280;51019;46.090;6.350;2022-12-11T13:16:49;95629.03;;;4.96;63.48
64610;BME280;51019;46.090;6.350;2022-12-11T13:19:26;95622.31;;;4.43;66.75